createdAt,value
2018-06-16T00:00:23.908Z,99.90
2018-06-16T00:02:53.844Z,99.90
2018-06-16T00:05:23.884Z,99.90
2018-06-16T00:07:54.190Z,99.90
2018-06-16T00:10:24.184Z,99.90
2018-06-16T00:12:54.520Z,99.90
2018-06-16T00:15:24.066Z,99.90
2018-06-16T00:17:53.615Z,99.90
2018-06-16T00:22:52.665Z,99.90
2018-06-16T00:25:22.783Z,99.90
2018-06-16T00:27:52.472Z,99.90
2018-06-16T00:30:21.829Z,99.90
2018-06-16T00:32:51.837Z,99.90
2018-06-16T00:35:21.304Z,99.90
2018-06-16T00:37:50.989Z,99.90
2018-06-16T00:40:20.388Z,99.90
2018-06-16T00:42:50.334Z,99.90
2018-06-16T00:45:19.891Z,99.90
2018-06-16T00:47:50.300Z,99.90
2018-06-16T00:50:21.153Z,99.90
2018-06-16T00:52:50.845Z,99.90
2018-06-16T00:55:20.601Z,99.90
2018-06-16T00:57:51.107Z,99.90
2018-06-16T01:00:21.251Z,99.90
2018-06-16T01:02:50.894Z,99.90
2018-06-16T01:05:20.901Z,99.90
2018-06-16T01:07:50.584Z,99.90
2018-06-16T01:10:19.842Z,99.90
2018-06-16T01:12:49.544Z,99.90
2018-06-16T01:15:18.962Z,99.90
2018-06-16T01:17:48.332Z,99.90
2018-06-16T01:20:18.064Z,99.90
2018-06-16T01:22:47.765Z,99.90
2018-06-16T01:27:46.318Z,99.90
2018-06-16T01:30:15.834Z,99.90
2018-06-16T01:32:46.261Z,99.90
2018-06-16T01:35:16.503Z,99.90
2018-06-16T01:37:45.815Z,99.90
2018-06-16T01:40:15.206Z,99.90
2018-06-16T01:42:45.577Z,99.90
2018-06-16T01:45:15.704Z,99.90
2018-06-16T01:47:45.776Z,99.90
2018-06-16T01:50:15.327Z,99.90
2018-06-16T01:52:46.102Z,99.90
2018-06-16T01:55:16.040Z,99.90
2018-06-16T01:57:45.872Z,99.90
2018-06-16T02:00:15.395Z,99.90
2018-06-16T02:02:45.054Z,99.90
2018-06-16T02:05:14.559Z,99.90
2018-06-16T02:07:44.014Z,99.90
2018-06-16T02:10:13.646Z,99.90
2018-06-16T02:12:44.442Z,99.90
2018-06-16T02:15:14.402Z,99.90
2018-06-16T02:17:44.197Z,99.90
2018-06-16T02:20:15.448Z,99.90
2018-06-16T02:22:44.936Z,99.90
2018-06-16T02:27:44.811Z,99.90
2018-06-16T02:30:14.519Z,99.90
2018-06-16T02:32:44.279Z,99.90
2018-06-16T02:35:13.639Z,99.90
2018-06-16T02:37:43.788Z,99.90
2018-06-16T02:40:13.352Z,99.90
2018-06-16T02:42:42.903Z,99.90
2018-06-16T02:45:13.805Z,99.90
2018-06-16T02:47:43.449Z,99.90
2018-06-16T02:50:13.038Z,99.90
2018-06-16T02:52:42.469Z,99.90
2018-06-16T02:55:12.714Z,99.90
2018-06-16T02:57:43.541Z,99.90
2018-06-16T03:02:45.508Z,99.90
2018-06-16T03:05:15.420Z,99.90
2018-06-16T03:07:45.369Z,99.90
2018-06-16T03:12:44.003Z,99.90
2018-06-16T03:15:13.527Z,99.90
2018-06-16T03:20:12.173Z,99.90
2018-06-16T03:22:41.678Z,99.90
2018-06-16T03:25:11.526Z,99.90
2018-06-16T03:27:40.922Z,99.90
2018-06-16T03:30:10.510Z,99.90
2018-06-16T03:32:40.045Z,99.90
2018-06-16T03:35:09.436Z,99.90
2018-06-16T03:37:38.979Z,99.90
2018-06-16T03:40:09.262Z,99.90
2018-06-16T03:45:07.832Z,99.90
2018-06-16T03:47:37.354Z,99.90
2018-06-16T03:50:07.837Z,99.90
2018-06-16T03:52:37.166Z,99.90
2018-06-16T03:55:07.147Z,99.90
2018-06-16T03:57:36.352Z,99.90
2018-06-16T04:00:06.014Z,99.90
2018-06-16T04:02:35.005Z,99.90
2018-06-16T04:05:04.954Z,99.90
2018-06-16T04:07:34.484Z,99.90
2018-06-16T04:10:09.228Z,99.90
2018-06-16T04:12:39.621Z,99.90
2018-06-16T04:15:09.602Z,99.90
2018-06-16T04:17:39.113Z,99.90
2018-06-16T04:20:08.720Z,99.90
2018-06-16T04:22:38.262Z,99.90
2018-06-16T04:25:07.590Z,99.90
2018-06-16T04:30:06.549Z,99.90
2018-06-16T04:32:35.945Z,99.90
2018-06-16T04:35:05.919Z,99.90
2018-06-16T04:37:35.376Z,99.90
2018-06-16T04:40:04.305Z,99.90
2018-06-16T04:42:34.369Z,99.90
2018-06-16T04:45:04.201Z,99.90
2018-06-16T04:47:34.167Z,99.90
2018-06-16T04:50:04.718Z,99.90
2018-06-16T04:52:34.333Z,99.90
2018-06-16T04:55:03.969Z,99.90
2018-06-16T04:57:33.851Z,99.90
2018-06-16T05:00:04.223Z,99.90
2018-06-16T05:02:34.027Z,99.90
2018-06-16T05:05:03.681Z,99.90
2018-06-16T05:07:33.573Z,99.90
2018-06-16T05:10:03.413Z,99.90
2018-06-16T05:12:33.540Z,99.90
2018-06-16T05:15:03.230Z,99.90
2018-06-16T05:17:33.537Z,99.90
2018-06-16T05:20:03.778Z,99.90
2018-06-16T05:22:33.570Z,99.90
2018-06-16T05:25:03.238Z,99.90
2018-06-16T05:27:32.840Z,99.90
2018-06-16T05:30:05.580Z,99.90
2018-06-16T05:32:38.361Z,99.90
2018-06-16T05:35:07.917Z,99.90
2018-06-16T05:40:06.255Z,99.90
2018-06-16T05:42:36.380Z,99.90
2018-06-16T05:45:05.722Z,99.90
2018-06-16T05:47:34.928Z,99.90
2018-06-16T05:50:04.404Z,99.90
2018-06-16T05:52:35.798Z,99.90
2018-06-16T05:55:05.456Z,99.90
2018-06-16T05:57:36.078Z,99.90
2018-06-16T06:00:05.973Z,99.90
2018-06-16T06:02:36.490Z,99.90
2018-06-16T06:05:06.440Z,99.90
2018-06-16T06:07:36.118Z,99.90
2018-06-16T06:10:05.941Z,99.90
2018-06-16T06:12:35.819Z,99.90
2018-06-16T06:15:05.669Z,99.90
2018-06-16T06:17:35.603Z,99.90
2018-06-16T06:20:05.325Z,99.90
2018-06-16T06:22:35.855Z,99.90
2018-06-16T06:25:05.594Z,99.90
2018-06-16T06:27:35.562Z,99.90
2018-06-16T06:30:05.865Z,99.90
2018-06-16T06:32:36.958Z,99.90
2018-06-16T06:35:07.943Z,99.90
2018-06-16T06:37:37.737Z,99.90
2018-06-16T06:40:08.248Z,99.90
2018-06-16T06:42:37.858Z,99.90
2018-06-16T06:45:07.665Z,99.90
2018-06-16T06:47:38.195Z,99.90
2018-06-16T06:50:08.460Z,99.90
2018-06-16T06:52:38.341Z,99.90
2018-06-16T06:55:08.173Z,99.90
2018-06-16T06:57:38.156Z,99.90
2018-06-16T07:00:08.877Z,99.90
2018-06-16T07:02:39.373Z,99.90
2018-06-16T07:05:09.259Z,99.90
2018-06-16T07:10:08.299Z,99.90
2018-06-16T07:12:40.675Z,99.90
2018-06-16T07:17:44.984Z,99.90
2018-06-16T07:20:15.047Z,99.90
2018-06-16T07:22:44.694Z,99.90
2018-06-16T07:25:16.152Z,99.90
2018-06-16T07:27:46.484Z,99.90
2018-06-16T07:30:16.220Z,99.90
2018-06-16T07:32:45.882Z,99.90
2018-06-16T07:35:16.236Z,99.90
2018-06-16T07:40:15.887Z,99.90
2018-06-16T07:42:46.132Z,99.90
2018-06-16T07:45:17.254Z,99.90
2018-06-16T07:47:47.998Z,99.90
2018-06-16T07:50:18.881Z,99.90
2018-06-16T07:52:49.464Z,99.90
2018-06-16T07:55:19.497Z,99.90
2018-06-16T07:57:49.210Z,99.90
2018-06-16T08:00:19.550Z,99.90
2018-06-16T08:05:20.194Z,99.90
2018-06-16T08:10:18.858Z,99.90
2018-06-16T08:12:48.635Z,99.90
2018-06-16T08:15:18.230Z,99.90
2018-06-16T08:17:47.726Z,99.90
2018-06-16T08:20:17.390Z,99.90
2018-06-16T08:22:47.486Z,99.90
2018-06-16T08:25:17.996Z,99.90
2018-06-16T08:27:48.168Z,99.90
2018-06-16T08:30:17.758Z,99.90
2018-06-16T08:32:48.519Z,99.90
2018-06-16T08:35:18.188Z,99.90
2018-06-16T08:37:48.393Z,99.90
2018-06-16T08:40:17.954Z,99.90
2018-06-16T08:42:47.761Z,99.90
2018-06-16T08:45:17.491Z,99.90
2018-06-16T08:47:47.613Z,99.90
2018-06-16T08:50:17.377Z,99.90
2018-06-16T08:52:47.508Z,99.90
2018-06-16T08:55:17.662Z,99.90
2018-06-16T08:57:47.155Z,99.90
2018-06-16T09:00:16.857Z,99.90
2018-06-16T09:02:46.700Z,99.90
2018-06-16T09:05:16.192Z,99.90
2018-06-16T09:07:45.967Z,99.90
2018-06-16T09:10:15.851Z,99.90
2018-06-16T09:12:46.008Z,99.90
2018-06-16T09:17:45.272Z,99.90
2018-06-16T09:20:16.035Z,99.90
2018-06-16T09:22:46.826Z,99.90
2018-06-16T09:25:16.768Z,99.90
2018-06-16T09:27:46.944Z,99.90
2018-06-16T09:30:17.309Z,99.90
2018-06-16T09:32:47.169Z,99.90
2018-06-16T09:37:45.930Z,99.90
2018-06-16T09:40:16.230Z,99.90
2018-06-16T09:42:45.937Z,99.90
2018-06-16T09:45:16.331Z,99.90
2018-06-16T09:47:45.922Z,99.90
2018-06-16T09:50:15.615Z,99.90
2018-06-16T09:52:46.132Z,99.90
2018-06-16T09:55:17.506Z,99.90
2018-06-16T09:57:47.211Z,99.90
2018-06-16T10:00:22.273Z,99.90
2018-06-16T10:02:52.438Z,99.90
2018-06-16T10:05:22.490Z,99.90
2018-06-16T10:07:52.229Z,99.90
2018-06-16T10:10:21.929Z,99.90
2018-06-16T10:12:51.737Z,99.90
2018-06-16T10:15:21.337Z,99.90
2018-06-16T10:17:50.688Z,99.90
2018-06-16T10:20:20.440Z,99.90
2018-06-16T10:22:50.227Z,99.90
2018-06-16T10:25:20.062Z,99.90
2018-06-16T10:27:50.368Z,99.90
2018-06-16T10:30:19.843Z,99.90
2018-06-16T10:32:50.029Z,99.90
2018-06-16T10:35:19.900Z,99.90
2018-06-16T10:37:49.583Z,99.90
2018-06-16T10:40:18.847Z,99.90
2018-06-16T10:42:48.203Z,99.90
2018-06-16T10:45:17.793Z,99.90
2018-06-16T10:47:47.467Z,99.90
2018-06-16T10:50:17.467Z,99.90
2018-06-16T10:52:46.976Z,99.90
2018-06-16T10:55:16.358Z,99.90
2018-06-16T10:57:45.735Z,99.90
2018-06-16T11:00:15.641Z,99.90
2018-06-16T11:02:45.361Z,99.90
2018-06-16T11:05:15.620Z,99.90
2018-06-16T11:07:44.968Z,99.90
2018-06-16T11:10:14.383Z,99.90
2018-06-16T11:12:43.836Z,99.90
2018-06-16T11:15:13.931Z,99.90
2018-06-16T11:17:43.536Z,99.90
2018-06-16T11:20:13.747Z,99.90
2018-06-16T11:22:43.295Z,98.50
2018-06-16T11:25:13.836Z,99.00
2018-06-16T11:27:43.278Z,99.10
2018-06-16T11:30:12.876Z,99.90
2018-06-16T11:32:42.222Z,99.90
2018-06-16T11:35:11.622Z,99.40
2018-06-16T11:37:41.176Z,98.80
2018-06-16T11:42:39.688Z,98.60
2018-06-16T11:45:09.244Z,99.80
2018-06-16T11:47:39.438Z,99.30
2018-06-16T11:50:08.673Z,99.90
2018-06-16T11:52:38.494Z,99.90
2018-06-16T11:55:08.196Z,99.90
2018-06-16T11:57:38.252Z,99.60
2018-06-16T12:00:07.683Z,99.90
2018-06-16T12:02:37.097Z,99.90
2018-06-16T12:05:08.208Z,99.30
2018-06-16T12:07:37.661Z,99.30
2018-06-16T12:10:07.189Z,99.90
2018-06-16T12:15:06.448Z,98.40
2018-06-16T12:17:35.810Z,99.50
2018-06-16T12:20:06.074Z,97.10
2018-06-16T12:25:04.212Z,97.80
2018-06-16T12:27:33.491Z,95.70
2018-06-16T12:30:03.168Z,99.90
2018-06-16T12:32:34.023Z,99.90
2018-06-16T12:35:03.449Z,99.90
2018-06-16T12:37:33.411Z,99.90
2018-06-16T12:40:03.344Z,99.90
2018-06-16T12:42:34.320Z,99.90
2018-06-16T12:45:03.657Z,99.90
2018-06-16T12:47:33.142Z,99.90
2018-06-16T12:50:02.755Z,99.90
2018-06-16T12:52:32.280Z,99.90
2018-06-16T12:55:01.984Z,99.90
2018-06-16T12:57:31.414Z,99.90
2018-06-16T13:00:01.696Z,99.90
2018-06-16T13:02:31.406Z,99.90
2018-06-16T13:05:01.953Z,99.90
2018-06-16T13:07:31.276Z,99.90
2018-06-16T13:10:01.372Z,99.90
2018-06-16T13:12:30.816Z,99.90
2018-06-16T13:15:23.762Z,99.90
2018-06-16T13:17:53.816Z,99.90
2018-06-16T13:20:23.467Z,99.50
2018-06-16T13:22:53.139Z,98.50
2018-06-16T13:25:23.024Z,97.60
2018-06-16T13:27:53.721Z,98.20
2018-06-16T13:30:23.947Z,97.40
2018-06-16T13:32:54.062Z,98.20
2018-06-16T13:35:24.306Z,98.00
2018-06-16T13:37:54.027Z,97.10
2018-06-16T13:40:23.557Z,96.50
2018-06-16T13:42:53.458Z,96.00
2018-06-16T13:45:23.085Z,94.80
2018-06-16T13:47:52.465Z,95.30
2018-06-16T13:50:22.086Z,95.40
2018-06-16T13:52:51.587Z,97.00
2018-06-16T13:55:22.417Z,94.50
2018-06-16T13:57:51.838Z,93.00
2018-06-16T14:00:21.971Z,95.00
2018-06-16T14:02:51.898Z,93.70
2018-06-16T14:05:21.736Z,93.60
2018-06-16T14:07:51.320Z,92.60
2018-06-16T14:12:51.246Z,90.10
2018-06-16T14:15:21.927Z,88.60
2018-06-16T14:17:52.671Z,88.10
2018-06-16T14:20:23.258Z,88.80
2018-06-16T14:22:53.394Z,88.60
2018-06-16T14:25:23.254Z,89.80
2018-06-16T14:27:52.891Z,86.70
2018-06-16T14:32:53.187Z,90.30
2018-06-16T14:35:22.889Z,91.60
2018-06-16T14:37:53.064Z,92.90
2018-06-16T14:40:22.785Z,94.90
2018-06-16T14:42:52.570Z,93.60
2018-06-16T14:45:22.148Z,93.10
2018-06-16T14:47:51.564Z,92.40
2018-06-16T14:50:21.219Z,91.70
2018-06-16T14:52:50.670Z,93.50
2018-06-16T14:55:20.442Z,94.20
2018-06-16T14:57:50.071Z,93.00
2018-06-16T15:00:20.785Z,93.40
2018-06-16T15:02:51.887Z,93.30
2018-06-16T15:05:21.309Z,92.70
2018-06-16T15:07:50.636Z,92.00
2018-06-16T15:10:20.468Z,92.20
2018-06-16T15:12:49.947Z,93.30
2018-06-16T15:15:19.883Z,91.30
2018-06-16T15:17:49.452Z,90.50
2018-06-16T15:20:19.124Z,90.90
2018-06-16T15:22:48.620Z,89.70
2018-06-16T15:27:48.285Z,88.10
2018-06-16T15:30:17.930Z,89.50
2018-06-16T15:32:48.158Z,88.90
2018-06-16T15:35:18.297Z,86.10
2018-06-16T15:37:47.766Z,88.50
2018-06-16T15:40:17.370Z,87.70
2018-06-16T15:42:47.233Z,86.70
2018-06-16T15:45:17.485Z,88.80
2018-06-16T15:47:46.939Z,85.50
2018-06-16T15:50:17.092Z,85.30
2018-06-16T15:52:46.646Z,79.70
2018-06-16T15:55:16.739Z,80.20
2018-06-16T15:57:47.426Z,81.90
2018-06-16T16:00:17.303Z,85.40
2018-06-16T16:02:46.925Z,82.00
2018-06-16T16:05:16.674Z,83.10
2018-06-16T16:07:49.032Z,82.50
2018-06-16T16:10:18.825Z,80.00
2018-06-16T16:12:49.249Z,75.90
2018-06-16T16:15:24.168Z,78.20
2018-06-16T16:17:54.021Z,78.10
2018-06-16T16:20:30.110Z,76.90
2018-06-16T16:22:59.968Z,77.30
2018-06-16T16:25:29.214Z,77.00
2018-06-16T16:27:58.407Z,74.40
2018-06-16T16:30:28.162Z,72.50
2018-06-16T16:32:57.897Z,71.90
2018-06-16T16:35:27.491Z,75.30
2018-06-16T16:37:58.089Z,71.60
2018-06-16T16:42:57.673Z,70.00
2018-06-16T16:45:28.097Z,71.70
2018-06-16T16:47:57.861Z,71.30
2018-06-16T16:50:28.883Z,73.30
2018-06-16T16:52:59.352Z,75.00
2018-06-16T16:55:28.990Z,73.00
2018-06-16T16:57:58.667Z,73.50
2018-06-16T17:00:30.820Z,74.90
2018-06-16T17:03:00.664Z,75.30
2018-06-16T17:05:31.455Z,76.70
2018-06-16T17:08:01.176Z,78.30
2018-06-16T17:13:00.155Z,78.50
2018-06-16T17:15:31.049Z,79.70
2018-06-16T17:18:01.439Z,82.50
2018-06-16T17:20:31.175Z,83.50
2018-06-16T17:23:00.910Z,84.80
2018-06-16T17:25:31.877Z,86.00
2018-06-16T17:28:01.613Z,85.90
2018-06-16T17:30:32.142Z,84.70
2018-06-16T17:33:02.225Z,85.60
2018-06-16T17:35:31.878Z,87.10
2018-06-16T17:38:02.400Z,87.10
2018-06-16T17:40:32.612Z,89.40
2018-06-16T17:43:02.248Z,88.80
2018-06-16T17:45:32.145Z,90.70
2018-06-16T17:48:02.346Z,91.10
2018-06-16T17:50:32.370Z,91.50
2018-06-16T17:53:03.009Z,91.90
2018-06-16T17:55:32.653Z,91.50
2018-06-16T17:58:02.668Z,91.20
2018-06-16T18:00:33.276Z,91.70
2018-06-16T18:03:03.134Z,90.80
2018-06-16T18:05:33.805Z,90.50
2018-06-16T18:08:03.611Z,91.00
2018-06-16T18:10:33.336Z,92.00
2018-06-16T18:13:03.085Z,91.80
2018-06-16T18:15:32.593Z,92.30
2018-06-16T18:18:02.267Z,92.90
2018-06-16T18:20:32.717Z,92.20
2018-06-16T18:23:02.154Z,92.30
2018-06-16T18:25:33.262Z,93.00
2018-06-16T18:28:03.733Z,93.20
2018-06-16T18:30:34.149Z,94.40
2018-06-16T18:33:03.635Z,94.30
2018-06-16T18:35:36.090Z,94.30
2018-06-16T18:38:07.842Z,94.80
2018-06-16T18:40:38.293Z,94.00
2018-06-16T18:43:07.933Z,94.80
2018-06-16T18:45:38.834Z,93.70
2018-06-16T18:48:09.051Z,94.70
2018-06-16T18:50:38.596Z,94.70
2018-06-16T18:53:09.304Z,95.40
2018-06-16T18:55:38.744Z,96.00
2018-06-16T18:58:08.904Z,96.30
2018-06-16T19:00:38.557Z,96.70
2018-06-16T19:03:09.050Z,97.70
2018-06-16T19:05:39.344Z,97.70
2018-06-16T19:08:09.651Z,98.10
2018-06-16T19:10:39.063Z,98.50
2018-06-16T19:13:09.213Z,99.40
2018-06-16T19:15:39.533Z,99.90
2018-06-16T19:18:10.530Z,99.90
2018-06-16T19:20:40.334Z,99.90
2018-06-16T19:25:40.058Z,99.90
2018-06-16T19:28:10.531Z,99.90
2018-06-16T19:30:40.425Z,99.90
2018-06-16T19:33:11.287Z,99.90
2018-06-16T19:35:40.897Z,99.90
2018-06-16T19:38:10.901Z,99.90
2018-06-16T19:40:41.361Z,99.90
2018-06-16T19:43:11.995Z,99.90
2018-06-16T19:45:42.275Z,99.90
2018-06-16T19:48:11.979Z,99.90
2018-06-16T19:50:42.758Z,99.90
2018-06-16T19:53:12.367Z,99.90
2018-06-16T19:55:42.244Z,99.90
2018-06-16T19:58:12.521Z,99.90
2018-06-16T20:03:12.344Z,99.90
2018-06-16T20:05:42.934Z,99.90
2018-06-16T20:08:12.344Z,99.90
2018-06-16T20:10:42.489Z,99.90
2018-06-16T20:13:12.899Z,99.90
2018-06-16T20:15:42.475Z,99.90
2018-06-16T20:18:12.390Z,99.90
2018-06-16T20:20:42.524Z,99.90
2018-06-16T20:23:12.964Z,99.90
2018-06-16T20:25:43.548Z,99.90
2018-06-16T20:28:13.314Z,99.90
2018-06-16T20:30:42.817Z,99.90
2018-06-16T20:33:12.936Z,99.90
2018-06-16T20:35:43.082Z,99.90
2018-06-16T20:38:13.585Z,99.90
2018-06-16T20:40:43.146Z,99.90
2018-06-16T20:43:13.707Z,99.90
2018-06-16T20:45:44.090Z,99.90
2018-06-16T20:48:15.402Z,99.90
2018-06-16T20:50:45.308Z,99.90
2018-06-16T20:53:15.479Z,99.90
2018-06-16T20:55:46.006Z,99.90
2018-06-16T20:58:15.912Z,99.90
2018-06-16T21:00:45.664Z,99.90
2018-06-16T21:03:16.255Z,99.90
2018-06-16T21:05:45.816Z,99.90
2018-06-16T21:08:16.275Z,99.90
2018-06-16T21:10:47.178Z,99.90
2018-06-16T21:13:16.618Z,99.90
2018-06-16T21:15:47.170Z,99.90
2018-06-16T21:18:16.871Z,99.90
2018-06-16T21:20:46.627Z,99.90
2018-06-16T21:23:16.781Z,99.90
2018-06-16T21:25:50.044Z,99.90
2018-06-16T21:28:19.736Z,99.90
2018-06-16T21:30:50.048Z,99.90
2018-06-16T21:33:21.593Z,99.90
2018-06-16T21:35:51.833Z,99.90
2018-06-16T21:40:51.497Z,99.90
2018-06-16T21:43:22.027Z,99.90
2018-06-16T21:48:21.495Z,99.90
2018-06-16T21:50:51.504Z,99.90
2018-06-16T21:53:21.721Z,99.90
2018-06-16T21:55:51.440Z,99.90
2018-06-16T21:58:22.439Z,99.90
2018-06-16T22:03:23.575Z,99.90
2018-06-16T22:05:53.391Z,99.90
2018-06-16T22:08:28.291Z,99.90
2018-06-16T22:10:59.492Z,99.90
2018-06-16T22:13:30.543Z,99.90
2018-06-16T22:18:29.552Z,99.90
2018-06-16T22:21:00.029Z,99.90
2018-06-16T22:23:29.513Z,99.90
2018-06-16T22:25:59.447Z,99.90
2018-06-16T22:28:29.098Z,99.90
2018-06-16T22:30:58.615Z,99.90
2018-06-16T22:35:57.882Z,99.90
2018-06-16T22:38:27.401Z,99.90
2018-06-16T22:40:57.866Z,99.90
2018-06-16T22:43:27.366Z,99.90
2018-06-16T22:45:57.637Z,99.90
2018-06-16T22:48:28.434Z,99.90
2018-06-16T22:50:57.933Z,99.90
2018-06-16T22:53:27.703Z,99.90
2018-06-16T22:55:57.460Z,99.90
2018-06-16T22:58:27.936Z,99.90
2018-06-16T23:00:59.629Z,99.90
2018-06-16T23:03:29.525Z,99.90
2018-06-16T23:06:00.258Z,99.90
2018-06-16T23:08:30.766Z,99.90
2018-06-16T23:11:00.561Z,99.90
2018-06-16T23:13:31.281Z,99.90
2018-06-16T23:16:02.016Z,99.90
2018-06-16T23:18:32.507Z,99.90
2018-06-16T23:21:08.487Z,99.90
2018-06-16T23:23:37.892Z,99.90
2018-06-16T23:26:08.153Z,99.90
2018-06-16T23:28:39.213Z,99.90
2018-06-16T23:31:09.967Z,99.90
2018-06-16T23:33:40.389Z,99.90
2018-06-16T23:36:11.105Z,99.90
2018-06-16T23:38:42.820Z,99.90
2018-06-16T23:41:12.339Z,99.90
2018-06-16T23:43:42.151Z,99.90
2018-06-16T23:46:13.154Z,99.90
2018-06-16T23:48:43.983Z,99.90
2018-06-16T23:51:13.731Z,99.90
2018-06-16T23:53:44.007Z,99.90
2018-06-16T23:56:14.535Z,99.90
2018-06-16T23:58:45.017Z,99.90
